Time;durP1;ratioP1;P1;durP2;ratioP2;P2;SDS_P1;SDS_P2;PMS_P1;PMS_P2;Temp;Humidity;BMP_temperature;BMP_pressure;BME280_temperature;BME280_humidity;BME280_pressure;Samples;Min_cycle;Max_cycle;Signal;HPM_P1;HPM_P2
2022/08/14 00:01:37;;;;;;;6.87;5.70;;;18.70;17.60;;;;;;4996003;28;20472;-72
2022/08/14 00:04:04;;;;;;;9.50;5.57;;;18.60;17.40;;;;;;4987288;28;20461;-72
2022/08/14 00:06:31;;;;;;;8.83;5.20;;;18.60;17.70;;;;;;4988777;28;20467;-72
2022/08/14 00:08:58;;;;;;;7.37;5.00;;;18.60;18.20;;;;;;4985224;28;20471;-72
2022/08/14 00:11:24;;;;;;;8.97;5.60;;;18.50;18.10;;;;;;4986894;28;20491;-72
2022/08/14 00:13:51;;;;;;;7.53;5.90;;;18.50;18.00;;;;;;4982664;28;20468;-71
2022/08/14 00:16:20;;;;;;;7.53;5.60;;;18.50;18.10;;;;;;4983464;28;20992;-71
2022/08/14 00:18:47;;;;;;;6.93;5.43;;;18.50;18.30;;;;;;5010227;28;20460;-72
2022/08/14 00:21:13;;;;;;;7.47;6.07;;;18.40;18.40;;;;;;4988179;28;20490;-71
2022/08/14 00:23:42;;;;;;;7.33;6.10;;;18.40;18.90;;;;;;4986240;28;20465;-71
2022/08/14 00:26:09;;;;;;;9.10;6.30;;;18.30;19.00;;;;;;4982321;28;20460;-72
2022/08/14 00:28:36;;;;;;;8.23;5.63;;;18.30;19.30;;;;;;4986315;28;20468;-71
2022/08/14 00:31:03;;;;;;;10.73;6.20;;;18.20;19.10;;;;;;4978748;28;20496;-71
2022/08/14 00:33:32;;;;;;;9.10;5.97;;;18.20;19.30;;;;;;5001459;28;20473;-71
2022/08/14 00:35:59;;;;;;;8.80;5.77;;;18.10;19.40;;;;;;4976697;28;20484;-72
2022/08/14 00:38:26;;;;;;;7.17;5.67;;;18.00;19.60;;;;;;4979590;28;20570;-71
2022/08/14 00:40:53;;;;;;;9.90;7.10;;;17.90;19.80;;;;;;4977323;28;20503;-72
2022/08/14 00:43:19;;;;;;;12.63;6.10;;;17.90;19.80;;;;;;5020084;22;20495;-63
2022/08/14 00:45:47;;;;;;;8.97;6.73;;;17.80;20.00;;;;;;5025553;28;20509;-65
2022/08/14 00:48:17;;;;;;;14.00;7.30;;;17.60;20.70;;;;;;5026375;28;20543;-63
2022/08/14 00:50:45;;;;;;;8.63;7.07;;;17.50;21.20;;;;;;5028807;28;20540;-63
2022/08/14 00:53:15;;;;;;;10.83;6.97;;;17.50;21.00;;;;;;5027249;28;20857;-64
2022/08/14 00:55:45;;;;;;;9.20;7.50;;;17.40;22.00;;;;;;5026475;28;21036;-63
2022/08/14 00:58:30;;;;;;;10.70;6.70;;;17.40;21.20;;;;;;5022744;28;20463;-64
2022/08/14 01:00:57;;;;;;;8.60;6.90;;;17.40;21.20;;;;;;5027587;28;20845;-65
2022/08/14 01:03:26;;;;;;;8.40;6.10;;;17.40;20.90;;;;;;5030319;28;20908;-64
2022/08/14 01:05:55;;;;;;;7.50;6.20;;;17.40;21.10;;;;;;5026813;28;20998;-64
2022/08/14 01:08:24;;;;;;;8.00;6.60;;;17.30;21.20;;;;;;5026731;28;20462;-63
2022/08/14 01:10:51;;;;;;;8.23;7.37;;;17.30;21.30;;;;;;5026907;28;20855;-64
2022/08/14 01:13:21;;;;;;;8.57;7.40;;;17.30;21.60;;;;;;5025164;28;20558;-64
2022/08/14 01:15:49;;;;;;;9.20;6.37;;;17.30;21.50;;;;;;5024255;28;20486;-63
2022/08/14 01:21:05;;;;;;;11.40;7.40;;;17.30;21.80;;;;;;5025178;28;20458;-64
2022/08/14 01:23:34;;;;;;;8.90;7.07;;;17.30;22.40;;;;;;5028489;28;20566;-65
2022/08/14 01:26:01;;;;;;;8.30;6.80;;;17.30;22.40;;;;;;5025114;28;20486;-63
2022/08/14 01:28:30;;;;;;;8.47;7.33;;;17.30;22.40;;;;;;5025686;28;20848;-64
2022/08/14 01:30:57;;;;;;;10.90;8.10;;;17.20;22.40;;;;;;5024609;28;20475;-64
2022/08/14 01:33:27;;;;;;;10.10;7.97;;;17.30;22.50;;;;;;5024413;28;20483;-64
2022/08/14 01:35:55;;;;;;;9.73;7.23;;;17.30;22.60;;;;;;5025853;28;20466;-63
2022/08/14 01:38:23;;;;;;;10.40;7.63;;;17.20;22.30;;;;;;5025869;28;20542;-63
2022/08/14 01:40:52;;;;;;;9.30;7.57;;;17.20;22.40;;;;;;5024568;28;20454;-63
2022/08/14 01:43:19;;;;;;;14.07;7.77;;;17.10;22.40;;;;;;5025070;28;21104;-63
2022/08/14 01:45:51;;;;;;;10.90;7.43;;;17.10;22.70;;;;;;5025887;28;20462;-64
2022/08/14 01:48:18;;;;;;;8.60;7.53;;;17.10;22.70;;;;;;5023928;28;20478;-64
2022/08/14 01:50:45;;;;;;;10.67;8.20;;;17.10;22.70;;;;;;5024597;28;20463;-64
2022/08/14 01:53:12;;;;;;;12.10;8.63;;;17.00;22.80;;;;;;5027483;28;20485;-63
2022/08/14 01:55:39;;;;;;;11.87;7.60;;;17.00;23.20;;;;;;5025313;28;20532;-63
2022/08/14 01:58:11;;;;;;;8.60;6.70;;;16.90;23.40;;;;;;5023862;28;20496;-63
2022/08/14 02:00:38;;;;;;;8.30;6.73;;;16.90;23.30;;;;;;5026611;28;20470;-64
2022/08/14 02:03:06;;;;;;;9.30;8.10;;;16.90;23.30;;;;;;5019868;28;20543;-63
2022/08/14 02:05:34;;;;;;;10.13;7.97;;;16.80;23.00;;;;;;5025200;28;20564;-62
2022/08/14 02:08:03;;;;;;;8.10;7.10;;;16.80;23.00;;;;;;5035420;28;20877;-64
2022/08/14 02:10:34;;;;;;;9.60;8.20;;;16.80;22.80;;;;;;5041033;28;20466;-63
2022/08/14 02:13:06;;;;;;;9.00;7.63;;;16.70;23.10;;;;;;5048175;28;20501;-62
2022/08/14 02:15:35;;;;;;;12.70;8.93;;;16.70;23.00;;;;;;5040767;28;20462;-62
2022/08/14 02:18:03;;;;;;;10.37;7.70;;;16.70;23.10;;;;;;5042861;28;20454;-64
2022/08/14 02:20:32;;;;;;;11.23;8.97;;;16.60;23.30;;;;;;5041386;28;20508;-62
2022/08/14 02:22:59;;;;;;;10.10;8.27;;;16.50;23.40;;;;;;5042680;28;20516;-63
2022/08/14 02:25:26;;;;;;;10.83;8.90;;;16.50;23.20;;;;;;5043216;28;20465;-63
2022/08/14 02:27:55;;;;;;;12.60;8.47;;;16.50;23.10;;;;;;5052606;28;20477;-64
2022/08/14 02:30:23;;;;;;;10.00;7.67;;;16.50;23.20;;;;;;5043394;28;20878;-64
2022/08/14 02:32:51;;;;;;;10.80;8.43;;;16.50;23.30;;;;;;5044804;28;20488;-63
2022/08/14 02:35:19;;;;;;;8.83;7.40;;;16.40;23.40;;;;;;5044420;28;20497;-63
2022/08/14 02:37:46;;;;;;;8.93;7.50;;;16.30;24.00;;;;;;5042525;28;20454;-64
2022/08/14 02:40:14;;;;;;;11.10;7.87;;;16.30;23.80;;;;;;5047813;28;20987;-64
2022/08/14 02:42:41;;;;;;;10.40;7.93;;;16.30;24.00;;;;;;5043162;28;20482;-63
2022/08/14 02:45:09;;;;;;;10.93;8.70;;;16.30;23.80;;;;;;5040778;28;20454;-63
2022/08/14 02:47:36;;;;;;;10.47;8.87;;;16.30;24.20;;;;;;5044324;28;20473;-63
2022/08/14 02:50:05;;;;;;;9.60;8.07;;;16.20;24.10;;;;;;5045603;28;20547;-63
2022/08/14 02:52:32;;;;;;;10.70;8.30;;;16.30;24.30;;;;;;5044479;28;20484;-63
2022/08/14 02:54:59;;;;;;;14.40;8.37;;;16.30;24.20;;;;;;5044953;28;20829;-64
2022/08/14 02:57:27;;;;;;;9.70;8.23;;;16.20;24.60;;;;;;5047516;28;20871;-64
2022/08/14 03:02:55;;;;;;;8.90;7.50;;;16.20;25.20;;;;;;5009704;28;20835;-63
2022/08/14 03:05:23;;;;;;;12.03;8.20;;;16.20;25.00;;;;;;5030351;28;20467;-63
2022/08/14 03:07:50;;;;;;;10.90;7.93;;;16.10;25.20;;;;;;5033607;28;20469;-65
2022/08/14 03:10:17;;;;;;;9.80;7.50;;;16.10;25.10;;;;;;5029572;28;20963;-65
2022/08/14 03:12:44;;;;;;;10.67;8.57;;;16.10;25.00;;;;;;5031130;28;21028;-63
2022/08/14 03:15:12;;;;;;;11.80;8.50;;;16.00;25.20;;;;;;5029217;28;20454;-63
2022/08/14 03:17:41;;;;;;;10.67;9.10;;;16.00;24.90;;;;;;5029505;28;20878;-64
2022/08/14 03:20:09;;;;;;;9.87;7.73;;;16.00;25.00;;;;;;5024279;28;20870;-64
2022/08/14 03:22:38;;;;;;;10.83;9.13;;;16.00;25.40;;;;;;5025582;28;20483;-64
2022/08/14 03:25:06;;;;;;;15.47;8.60;;;16.00;25.50;;;;;;5023647;28;20462;-64
2022/08/14 03:27:33;;;;;;;12.90;8.53;;;16.00;25.40;;;;;;5038381;28;20478;-65
2022/08/14 03:30:02;;;;;;;11.97;8.60;;;16.00;25.10;;;;;;5023188;28;20478;-64
2022/08/14 03:32:32;;;;;;;9.60;8.00;;;16.00;25.00;;;;;;5020229;28;20847;-63
2022/08/14 03:34:59;;;;;;;10.30;8.10;;;16.00;25.20;;;;;;5025721;28;20462;-63
2022/08/14 03:37:26;;;;;;;11.07;8.33;;;15.90;25.60;;;;;;5023689;28;20481;-65
2022/08/14 03:39:54;;;;;;;9.97;8.30;;;15.90;25.70;;;;;;5024731;28;20513;-64
2022/08/14 03:42:24;;;;;;;10.83;8.70;;;15.90;25.80;;;;;;5027115;28;20862;-63
2022/08/14 03:44:51;;;;;;;11.00;9.67;;;15.80;25.70;;;;;;5025945;28;20498;-64
2022/08/14 03:47:18;;;;;;;11.20;9.20;;;15.70;26.40;;;;;;5029446;28;20473;-63
2022/08/14 03:49:46;;;;;;;10.77;9.23;;;15.80;26.20;;;;;;5033807;28;20467;-63
2022/08/14 03:52:12;;;;;;;10.87;8.97;;;15.70;26.20;;;;;;5027181;28;21013;-65
2022/08/14 03:54:40;;;;;;;10.67;8.37;;;15.70;26.20;;;;;;5028816;28;20471;-65
2022/08/14 03:57:09;;;;;;;10.20;8.80;;;15.70;26.10;;;;;;5031215;28;20458;-63
2022/08/14 03:59:36;;;;;;;12.77;9.03;;;15.60;26.30;;;;;;5027341;28;20946;-64
2022/08/14 04:02:04;;;;;;;10.33;9.23;;;15.60;26.10;;;;;;5041569;28;20476;-65
2022/08/14 04:04:30;;;;;;;10.60;8.50;;;15.60;26.20;;;;;;5045578;28;20458;-63
2022/08/14 04:06:59;;;;;;;11.07;8.30;;;15.60;26.50;;;;;;5047988;28;21001;-64
2022/08/14 04:09:26;;;;;;;13.00;9.13;;;15.60;26.60;;;;;;5045187;28;21189;-65
2022/08/14 04:11:53;;;;;;;10.20;8.30;;;15.60;26.50;;;;;;5046867;28;20464;-63
2022/08/14 04:14:21;;;;;;;10.53;8.57;;;15.60;26.80;;;;;;5049528;28;20462;-64
2022/08/14 04:16:48;;;;;;;9.70;8.70;;;15.60;26.70;;;;;;5047670;28;20537;-65
2022/08/14 04:19:17;;;;;;;12.60;7.90;;;15.60;26.60;;;;;;5051202;28;20469;-64
2022/08/14 04:21:44;;;;;;;11.23;8.70;;;15.60;27.10;;;;;;5046469;28;20836;-64
2022/08/14 04:24:12;;;;;;;9.30;8.00;;;15.50;27.00;;;;;;5046851;28;20842;-64
2022/08/14 04:26:39;;;;;;;11.90;10.40;;;15.40;26.70;;;;;;5051379;28;20559;-63
2022/08/14 04:29:08;;;;;;;14.77;9.33;;;15.40;26.50;;;;;;5046685;28;20462;-63
2022/08/14 04:31:36;;;;;;;13.17;9.77;;;15.30;26.50;;;;;;5034292;28;20471;-63
2022/08/14 04:34:04;;;;;;;10.97;9.73;;;15.30;26.50;;;;;;5028031;28;20486;-63
2022/08/14 04:36:31;;;;;;;12.27;10.87;;;15.20;26.40;;;;;;5027547;28;20458;-63
2022/08/14 04:44:26;;;;;;;15.27;8.90;;;15.20;27.00;;;;;;5025428;28;20449;-64
2022/08/14 04:49:41;;;;;;;10.80;9.17;;;15.20;27.20;;;;;;5030745;28;20552;-63
2022/08/14 04:52:08;;;;;;;12.40;10.27;;;15.30;27.50;;;;;;5026869;28;21074;-64
2022/08/14 04:54:34;;;;;;;13.50;8.90;;;15.40;27.20;;;;;;5027902;28;20512;-63
2022/08/14 04:57:01;;;;;;;11.30;9.33;;;15.40;27.70;;;;;;5029026;28;20478;-63
2022/08/14 04:59:28;;;;;;;17.07;9.50;;;15.40;27.90;;;;;;5026886;28;20609;-63
2022/08/14 05:01:57;;;;;;;10.70;9.33;;;15.60;28.10;;;;;;5028999;28;20483;-63
2022/08/14 05:04:24;;;;;;;13.97;9.97;;;15.60;28.40;;;;;;5027961;28;20470;-64
2022/08/14 05:06:53;;;;;;;13.67;10.20;;;15.70;28.30;;;;;;5028792;28;20483;-64
2022/08/14 05:09:19;;;;;;;14.43;11.17;;;15.90;27.90;;;;;;5027175;28;20462;-64
2022/08/14 05:11:47;;;;;;;11.60;10.40;;;16.10;27.90;;;;;;5028537;28;20469;-65
2022/08/14 05:14:13;;;;;;;11.80;9.07;;;16.30;28.20;;;;;;5026048;28;20459;-65
2022/08/14 05:16:40;;;;;;;10.70;8.37;;;16.60;28.00;;;;;;5030342;28;20463;-64
2022/08/14 05:19:09;;;;;;;13.17;9.00;;;17.00;27.40;;;;;;5024862;28;20466;-63
2022/08/14 05:21:36;;;;;;;9.20;7.80;;;17.70;25.90;;;;;;5027566;28;20704;-65
2022/08/14 05:24:03;;;;;;;9.27;8.27;;;18.80;23.50;;;;;;5031986;28;20534;-64
2022/08/14 05:26:30;;;;;;;11.13;8.17;;;20.00;20.30;;;;;;5024995;28;20451;-64
2022/08/14 05:28:56;;;;;;;9.20;8.20;;;21.20;17.30;;;;;;5028950;28;20475;-65
2022/08/14 05:31:23;;;;;;;8.60;7.07;;;22.50;15.20;;;;;;5034314;28;20477;-65
2022/08/14 05:33:50;;;;;;;12.03;7.50;;;23.90;12.10;;;;;;5044230;28;20485;-64
2022/08/14 05:36:19;;;;;;;10.70;8.43;;;25.40;8.70;;;;;;5046435;28;20472;-64
2022/08/14 05:38:47;;;;;;;8.67;6.83;;;26.80;6.00;;;;;;5046725;28;20450;-65
2022/08/14 05:41:16;;;;;;;14.27;7.07;;;28.10;4.00;;;;;;5044618;28;21066;-65
2022/08/14 05:43:46;;;;;;;8.73;7.37;;;29.30;1.60;;;;;;5044872;28;20985;-65
2022/08/14 05:46:17;;;;;;;7.73;5.97;;;30.30;1.00;;;;;;5043294;28;20462;-65
2022/08/14 05:48:47;;;;;;;8.80;6.83;;;31.50;1.00;;;;;;5046664;28;20478;-65
2022/08/14 05:51:13;;;;;;;8.50;6.20;;;32.70;1.00;;;;;;5046506;28;20508;-66
2022/08/14 05:53:42;;;;;;;8.10;6.00;;;33.80;1.00;;;;;;5045290;28;20472;-65
2022/08/14 05:56:08;;;;;;;10.60;6.10;;;35.00;1.00;;;;;;5044567;28;20467;-65
2022/08/14 05:58:35;;;;;;;6.20;5.60;;;36.10;1.00;;;;;;5047479;28;20458;-65
2022/08/14 06:01:03;;;;;;;6.10;4.97;;;36.90;1.00;;;;;;5038928;28;20471;-66
2022/08/14 06:03:29;;;;;;;7.63;5.47;;;37.60;1.00;;;;;;5024063;28;20487;-65
2022/08/14 06:05:56;;;;;;;6.03;5.00;;;38.30;1.00;;;;;;5027157;28;20843;-66
2022/08/14 06:08:25;;;;;;;5.80;4.77;;;39.20;1.00;;;;;;5025745;28;20506;-66
2022/08/14 06:11:01;;;;;;;6.80;5.23;;;39.90;1.00;;;;;;5030568;28;20463;-66
2022/08/14 06:13:28;;;;;;;5.30;4.80;;;40.30;1.00;;;;;;5026293;28;20482;-66
2022/08/14 06:15:55;;;;;;;8.10;4.83;;;40.10;1.00;;;;;;5030591;28;20558;-65
2022/08/14 06:18:22;;;;;;;7.00;5.30;;;39.20;1.00;;;;;;5023545;28;20451;-65
2022/08/14 06:20:48;;;;;;;11.20;5.53;;;38.90;1.00;;;;;;5026248;28;20455;-65
2022/08/14 06:23:16;;;;;;;6.53;5.10;;;39.50;1.00;;;;;;5025002;28;20479;-65
2022/08/14 06:25:43;;;;;;;5.97;5.37;;;40.50;1.00;;;;;;5024423;28;21157;-65
2022/08/14 06:28:18;;;;;;;5.97;5.37;;;41.40;1.00;;;;;;5026795;28;20558;-66
2022/08/14 06:30:45;;;;;;;8.63;5.97;;;41.90;1.00;;;;;;5029607;28;20478;-66
2022/08/14 06:33:12;;;;;;;6.27;5.30;;;42.20;1.00;;;;;;5041590;28;20482;-66
2022/08/14 06:35:39;;;;;;;5.60;4.93;;;42.50;1.00;;;;;;5043210;28;20488;-65
2022/08/14 06:38:06;;;;;;;7.63;5.30;;;43.10;1.00;;;;;;5045219;28;20462;-65
2022/08/14 06:40:34;;;;;;;6.80;5.20;;;44.00;1.00;;;;;;5044925;28;20454;-65
2022/08/14 06:43:03;;;;;;;6.30;5.70;;;44.80;1.00;;;;;;5043040;28;20489;-65
2022/08/14 06:45:31;;;;;;;6.83;5.17;;;45.40;1.00;;;;;;5087126;22;20995;-69
2022/08/14 06:48:00;;;;;;;8.23;4.60;;;45.30;1.00;;;;;;5080610;28;20495;-66
2022/08/14 06:50:27;;;;;;;5.93;4.90;;;45.40;1.00;;;;;;5084065;28;20464;-69
2022/08/14 06:52:54;;;;;;;5.87;4.80;;;45.90;1.00;;;;;;5084607;28;20824;-68
2022/08/14 06:55:22;;;;;;;6.77;5.03;;;46.00;1.00;;;;;;5078858;28;20477;-66
2022/08/14 06:57:52;;;;;;;8.33;4.80;;;46.40;1.00;;;;;;5081421;28;20462;-67
2022/08/14 07:00:20;;;;;;;5.80;4.13;;;47.40;1.00;;;;;;5082041;28;20517;-66
2022/08/14 07:05:46;;;;;;;5.10;4.20;;;48.20;1.00;;;;;;5078404;28;20505;-66
2022/08/14 07:08:15;;;;;;;5.63;4.33;;;48.80;1.00;;;;;;5081790;28;20480;-67
2022/08/14 07:10:42;;;;;;;4.93;3.43;;;49.70;1.00;;;;;;5081667;28;20487;-66
2022/08/14 07:13:10;;;;;;;4.70;3.47;;;50.50;1.00;;;;;;5083066;28;20452;-66
2022/08/14 07:15:37;;;;;;;5.00;4.40;;;51.00;1.00;;;;;;5080443;28;20483;-67
2022/08/14 07:18:06;;;;;;;4.30;3.60;;;51.30;1.00;;;;;;5083771;28;20981;-66
2022/08/14 07:20:33;;;;;;;7.77;4.17;;;51.40;1.00;;;;;;5086102;28;21195;-67
2022/08/14 07:23:01;;;;;;;5.70;3.97;;;51.20;1.00;;;;;;5081269;28;20472;-67
2022/08/14 07:25:28;;;;;;;4.83;3.97;;;50.80;1.00;;;;;;5085639;28;20479;-67
2022/08/14 07:27:55;;;;;;;6.07;4.17;;;50.60;1.00;;;;;;5087945;28;20511;-66
2022/08/14 07:30:23;;;;;;;6.20;4.00;;;51.10;1.00;;;;;;5080762;28;20956;-66
2022/08/14 07:32:49;;;;;;;5.83;4.00;;;51.90;1.00;;;;;;5082468;28;21072;-66
2022/08/14 07:35:18;;;;;;;7.10;4.27;;;52.50;1.00;;;;;;5085161;28;20498;-67
2022/08/14 07:37:47;;;;;;;6.10;4.27;;;52.90;1.00;;;;;;5084727;28;20988;-67
2022/08/14 07:40:14;;;;;;;6.70;4.20;;;52.60;1.00;;;;;;5085190;28;20463;-67
2022/08/14 07:42:41;;;;;;;5.13;3.80;;;51.90;1.00;;;;;;5081623;28;20546;-66
2022/08/14 07:45:09;;;;;;;4.67;3.60;;;52.00;1.00;;;;;;5086847;28;20537;-68
2022/08/14 07:47:40;;;;;;;5.10;3.57;;;52.80;1.00;;;;;;5085846;28;20455;-67
2022/08/14 07:50:14;;;;;;;5.40;3.07;;;53.30;1.00;;;;;;5082727;28;20514;-66
2022/08/14 07:52:44;;;;;;;5.40;3.60;;;53.50;1.00;;;;;;5081364;28;20464;-67
2022/08/14 07:55:12;;;;;;;7.07;3.20;;;54.40;1.00;;;;;;5086825;28;20475;-67
2022/08/14 07:57:39;;;;;;;5.30;3.40;;;54.30;1.00;;;;;;5082149;28;20452;-68
2022/08/14 08:00:10;;;;;;;4.10;3.30;;;54.60;1.00;;;;;;5080196;28;20453;-66
2022/08/14 08:02:39;;;;;;;4.60;3.63;;;55.30;1.00;;;;;;5082721;28;20498;-66
2022/08/14 08:05:08;;;;;;;4.20;3.00;;;56.00;1.00;;;;;;5079180;28;20471;-66
2022/08/14 08:07:35;;;;;;;4.43;3.10;;;56.70;1.00;;;;;;5089191;28;20513;-66
2022/08/14 08:10:29;;;;;;;4.43;3.10;;;57.20;1.00;;;;;;5080645;28;20253;-63
2022/08/14 08:12:54;;;;;;;5.28;2.78;;;57.00;1.00;;;;;;5082189;28;20221;-64
2022/08/14 08:15:21;;;;;;;4.68;2.20;;;57.10;1.00;;;;;;5084068;28;20225;-63
2022/08/14 08:17:50;;;;;;;3.47;2.42;;;56.70;1.00;;;;;;5084676;28;20202;-63
2022/08/14 08:20:18;;;;;;;3.63;2.17;;;56.60;1.00;;;;;;5082026;28;22445;-64
2022/08/14 08:22:45;;;;;;;3.47;2.33;;;57.10;1.00;;;;;;5079985;28;20198;-66
2022/08/14 08:25:13;;;;;;;3.60;2.13;;;57.20;1.00;;;;;;5083380;28;20210;-67
2022/08/14 08:27:40;;;;;;;3.72;2.03;;;57.60;1.00;;;;;;5084052;28;20200;-67
2022/08/14 08:30:09;;;;;;;6.25;2.08;;;57.50;1.00;;;;;;5080803;28;20849;-68
2022/08/14 08:32:41;;;;;;;3.83;2.33;;;57.80;1.00;;;;;;5076448;28;20707;-65
2022/08/14 08:35:10;;;;;;;3.25;1.92;;;57.90;1.00;;;;;;5077709;28;20801;-65
2022/08/14 08:37:38;;;;;;;4.25;2.00;;;57.90;1.00;;;;;;5083716;28;20263;-65
2022/08/14 08:40:06;;;;;;;3.83;1.92;;;57.90;1.00;;;;;;5085751;28;20204;-65
2022/08/14 08:42:34;;;;;;;4.32;1.85;;;57.90;1.00;;;;;;5082627;28;20199;-69
2022/08/14 08:45:00;;;;;;;5.25;2.35;;;57.80;1.00;;;;;;5081265;28;20896;-66
2022/08/14 08:47:38;;;;;;;3.60;1.90;;;57.40;1.00;;;;;;5084657;28;20204;-68
2022/08/14 08:50:18;;;;;;;3.88;2.13;;;57.20;1.00;;;;;;5081215;28;20306;-67
2022/08/14 08:52:49;;;;;;;4.53;2.38;;;57.20;1.00;;;;;;5079607;28;20202;-67
2022/08/14 08:55:16;;;;;;;3.80;2.15;;;57.20;1.00;;;;;;5087512;28;20214;-64
2022/08/14 08:57:44;;;;;;;4.22;2.08;;;57.20;1.00;;;;;;5088550;28;20209;-68
2022/08/14 09:00:16;;;;;;;3.45;1.90;;;57.30;1.00;;;;;;5082887;28;20223;-62
2022/08/14 09:02:52;;;;;;;4.28;2.25;;;57.00;1.00;;;;;;5055944;28;20229;-62
2022/08/14 09:05:19;;;;;;;3.53;2.20;;;56.60;1.00;;;;;;5052238;28;20222;-63
2022/08/14 09:07:46;;;;;;;4.70;2.37;;;55.90;1.00;;;;;;5056978;28;20199;-63
2022/08/14 09:10:13;;;;;;;3.37;2.07;;;56.10;1.00;;;;;;5054654;28;20282;-65
2022/08/14 09:12:40;;;;;;;3.33;2.03;;;57.00;1.00;;;;;;5051234;28;20218;-64
2022/08/14 09:15:10;;;;;;;4.32;2.30;;;57.70;1.00;;;;;;5050145;28;20221;-64
2022/08/14 09:17:37;;;;;;;4.18;2.15;;;58.10;1.00;;;;;;5052412;28;20281;-65
2022/08/14 09:20:05;;;;;;;4.85;2.40;;;58.20;1.00;;;;;;5049465;28;20219;-65
2022/08/14 09:22:32;;;;;;;4.40;2.13;;;57.80;1.00;;;;;;5050886;28;20211;-65
2022/08/14 09:25:00;;;;;;;3.97;1.83;;;57.60;1.00;;;;;;5056303;28;20214;-65
2022/08/14 09:27:27;;;;;;;5.05;2.10;;;57.20;1.00;;;;;;5056273;28;20215;-64
2022/08/14 09:29:54;;;;;;;3.20;2.13;;;56.50;1.00;;;;;;5053014;28;20196;-66
2022/08/14 09:32:32;;;;;;;3.87;2.20;;;55.70;1.00;;;;;;5060751;28;20230;-66
2022/08/14 09:35:08;;;;;;;7.00;2.43;;;54.80;1.00;;;;;;5059854;28;20480;-65
2022/08/14 09:37:46;;;;;;;4.93;2.50;;;53.80;1.00;;;;;;5060707;28;20469;-65
2022/08/14 09:40:22;;;;;;;3.10;2.00;;;53.20;1.00;;;;;;5054662;28;20472;-65
2022/08/14 09:43:00;;;;;;;3.60;2.37;;;52.70;1.00;;;;;;5053683;28;20460;-65
2022/08/14 09:47:59;;;;;;;4.27;2.67;;;51.10;1.00;;;;;;5055374;22;20866;-65
2022/08/14 09:50:29;;;;;;;5.20;2.13;;;50.10;1.00;;;;;;5065834;28;20464;-66
2022/08/14 09:53:01;;;;;;;4.27;2.30;;;50.30;1.00;;;;;;5062559;28;20494;-64
2022/08/14 09:55:31;;;;;;;3.50;2.30;;;50.90;1.00;;;;;;5062432;28;20504;-65
2022/08/14 09:58:10;;;;;;;4.17;2.00;;;50.80;1.00;;;;;;5040457;28;20459;-65
2022/08/14 10:00:44;;;;;;;3.50;2.23;;;51.60;1.00;;;;;;5035583;28;20902;-65
2022/08/14 10:03:12;;;;;;;3.90;2.30;;;52.00;1.00;;;;;;5039654;28;20465;-63
2022/08/14 10:05:39;;;;;;;3.80;2.30;;;51.90;1.00;;;;;;5041640;28;20458;-63
2022/08/14 10:08:17;;;;;;;6.80;2.57;;;51.40;1.00;;;;;;5036810;28;20485;-61
2022/08/14 10:10:44;;;;;;;3.60;2.30;;;51.60;1.00;;;;;;5032795;28;21135;-63
2022/08/14 10:13:21;;;;;;;3.77;2.40;;;52.10;1.00;;;;;;5035744;28;21531;-64
2022/08/14 10:15:48;;;;;;;3.27;2.07;;;52.30;1.00;;;;;;5033899;28;20476;-63
2022/08/14 10:18:19;;;;;;;3.50;2.40;;;52.30;1.00;;;;;;5038965;28;20466;-66
2022/08/14 10:20:54;;;;;;;4.23;2.50;;;51.60;1.00;;;;;;5036398;28;20469;-66
2022/08/14 10:23:24;;;;;;;4.50;2.10;;;51.40;1.00;;;;;;5030229;28;20465;-67
2022/08/14 10:25:53;;;;;;;4.03;2.10;;;51.20;1.00;;;;;;5034584;28;20973;-67
2022/08/14 10:28:22;;;;;;;4.27;2.10;;;50.30;1.00;;;;;;5037813;28;20904;-67
2022/08/14 10:30:52;;;;;;;3.30;1.90;;;49.10;1.00;;;;;;5041410;28;20587;-66
2022/08/14 10:33:29;;;;;;;4.20;2.30;;;47.30;1.00;;;;;;5057300;28;20492;-67
2022/08/14 10:35:57;;;;;;;3.50;2.00;;;45.20;1.00;;;;;;5059311;28;20488;-66
2022/08/14 10:38:29;;;;;;;3.97;2.47;;;43.30;1.00;;;;;;5054373;28;20469;-67
2022/08/14 10:40:56;;;;;;;4.23;2.30;;;41.30;1.00;;;;;;5059835;28;20542;-67
2022/08/14 10:43:25;;;;;;;4.37;2.50;;;39.60;1.00;;;;;;5056159;28;20460;-67
2022/08/14 10:45:56;;;;;;;4.37;2.50;;;38.20;1.00;;;;;;5064757;28;20558;-64
2022/08/14 10:48:24;;;;;;;5.67;2.80;;;37.10;1.00;;;;;;5059060;28;20453;-64
2022/08/14 10:50:53;;;;;;;4.00;2.63;;;36.10;1.00;;;;;;5056389;28;21108;-64
2022/08/14 10:53:34;;;;;;;4.50;2.70;;;35.40;1.00;;;;;;5064803;28;20480;-64
2022/08/14 10:56:05;;;;;;;4.40;2.53;;;34.70;1.00;;;;;;5061787;28;20873;-63
2022/08/14 10:58:33;;;;;;;4.50;2.20;;;34.10;1.00;;;;;;5086608;22;20528;-66
2022/08/14 11:01:06;;;;;;;4.80;2.33;;;33.60;1.00;;;;;;5084819;28;20456;-65
2022/08/14 11:03:42;;;;;;;5.23;2.57;;;33.20;1.00;;;;;;5089324;28;20590;-67
2022/08/14 11:06:21;;;;;;;4.77;2.40;;;33.00;1.00;;;;;;5089585;28;20459;-65
2022/08/14 11:08:50;;;;;;;4.63;2.90;;;32.80;1.00;;;;;;5085702;28;20459;-65
2022/08/14 11:11:19;;;;;;;4.40;2.60;;;32.60;1.00;;;;;;5087295;28;20467;-65
2022/08/14 11:13:49;;;;;;;4.50;2.40;;;32.30;1.00;;;;;;5088955;28;20562;-66
2022/08/14 11:16:17;;;;;;;4.20;2.57;;;32.20;1.00;;;;;;5084072;28;20981;-65
2022/08/14 11:18:46;;;;;;;5.00;2.90;;;32.00;1.00;;;;;;5087442;28;21351;-64
2022/08/14 11:21:16;;;;;;;5.17;2.80;;;31.90;1.00;;;;;;5079678;28;20460;-64
2022/08/14 11:23:46;;;;;;;4.83;3.03;;;31.80;1.00;;;;;;5087235;28;20548;-62
2022/08/14 11:26:17;;;;;;;5.07;2.77;;;31.60;1.00;;;;;;5084311;28;20459;-62
2022/08/14 11:28:46;;;;;;;5.33;2.40;;;31.50;1.00;;;;;;5090128;28;20459;-62
2022/08/14 11:31:13;;;;;;;4.07;2.40;;;31.30;1.00;;;;;;5091089;28;20476;-62
2022/08/14 11:33:41;;;;;;;3.77;1.77;;;31.20;1.00;;;;;;5077939;28;21050;-62
2022/08/14 11:36:12;;;;;;;4.23;1.60;;;31.10;1.00;;;;;;5095134;28;20463;-62
2022/08/14 11:38:41;;;;;;;4.20;2.10;;;31.00;1.00;;;;;;5095956;28;20464;-61
2022/08/14 11:41:11;;;;;;;4.47;1.80;;;30.90;1.00;;;;;;5087912;28;20561;-62
2022/08/14 11:43:40;;;;;;;4.47;2.00;;;30.70;1.00;;;;;;5093325;28;20475;-62
2022/08/14 11:46:12;;;;;;;3.87;2.10;;;30.70;1.00;;;;;;5091548;28;20456;-62
2022/08/14 11:48:47;;;;;;;4.00;2.20;;;30.60;1.00;;;;;;5084063;28;20488;-62
2022/08/14 11:51:20;;;;;;;4.00;2.20;;;30.60;1.00;;;;;;5085176;28;20461;-62
2022/08/14 11:53:52;;;;;;;4.40;2.10;;;30.50;1.00;;;;;;5081643;28;20546;-62
2022/08/14 11:56:22;;;;;;;4.07;2.13;;;30.50;1.00;;;;;;5089709;28;20567;-62
2022/08/14 11:58:54;;;;;;;4.10;2.03;;;30.30;1.00;;;;;;5087428;28;20460;-62
2022/08/14 12:01:29;;;;;;;4.30;2.20;;;30.30;1.00;;;;;;5084052;28;20468;-62
2022/08/14 12:04:08;;;;;;;4.43;2.50;;;30.20;1.00;;;;;;5086994;28;20530;-61
2022/08/14 12:06:47;;;;;;;4.20;2.50;;;30.20;1.00;;;;;;5089045;28;20460;-62
2022/08/14 12:09:15;;;;;;;3.70;2.07;;;30.20;1.00;;;;;;5088374;28;20463;-62
2022/08/14 12:11:44;;;;;;;4.20;2.10;;;30.10;1.00;;;;;;5084434;28;20952;-62
2022/08/14 12:14:13;;;;;;;4.00;2.10;;;30.10;1.00;;;;;;5087450;28;20567;-62
2022/08/14 12:16:40;;;;;;;4.97;2.03;;;30.10;1.00;;;;;;5085904;28;20461;-62
2022/08/14 12:19:07;;;;;;;3.80;1.80;;;30.20;1.00;;;;;;5082060;28;20461;-66
2022/08/14 12:21:34;;;;;;;6.03;2.60;;;30.20;1.00;;;;;;5092075;28;20468;-66
2022/08/14 12:24:04;;;;;;;3.87;2.00;;;30.20;1.00;;;;;;5080754;28;20492;-67
2022/08/14 12:26:32;;;;;;;4.50;2.03;;;30.20;1.00;;;;;;5083445;28;20467;-69
2022/08/14 12:29:08;;;;;;;5.00;2.40;;;30.20;1.00;;;;;;5085812;28;21483;-69
2022/08/14 12:31:36;;;;;;;3.67;1.97;;;30.20;1.00;;;;;;5090568;28;20501;-68
2022/08/14 12:34:04;;;;;;;4.30;2.80;;;30.30;1.00;;;;;;5086405;28;20516;-69
2022/08/14 12:36:32;;;;;;;3.90;1.87;;;30.30;1.00;;;;;;5092507;28;21258;-68
2022/08/14 12:39:00;;;;;;;6.00;3.27;;;30.20;1.00;;;;;;5083088;28;20964;-68
2022/08/14 12:41:33;;;;;;;7.10;2.93;;;30.10;1.00;;;;;;5090449;28;20562;-68
2022/08/14 12:44:02;;;;;;;7.00;2.50;;;30.10;1.00;;;;;;5091555;28;20499;-68
2022/08/14 12:46:33;;;;;;;6.03;4.70;;;30.10;1.00;;;;;;5085232;28;20886;-69
2022/08/14 12:49:05;;;;;;;4.20;2.33;;;30.00;1.00;;;;;;5089621;28;20489;-66
2022/08/14 12:51:32;;;;;;;3.93;2.20;;;30.00;1.00;;;;;;5085008;28;20947;-67
2022/08/14 12:54:00;;;;;;;4.63;2.03;;;29.90;1.00;;;;;;5089506;28;20484;-67
2022/08/14 12:56:28;;;;;;;4.20;1.73;;;29.90;1.00;;;;;;5085237;28;20552;-67
2022/08/14 12:58:56;;;;;;;3.50;1.70;;;29.90;1.00;;;;;;5084180;28;20492;-67
2022/08/14 13:01:26;;;;;;;3.93;1.90;;;29.90;1.00;;;;;;5088797;28;20479;-67
2022/08/14 13:04:06;;;;;;;4.73;1.90;;;29.80;1.00;;;;;;5087200;28;20487;-68
2022/08/14 13:06:34;;;;;;;4.90;2.07;;;29.80;1.00;;;;;;5090625;28;20462;-67
2022/08/14 13:09:01;;;;;;;4.33;1.93;;;29.80;1.00;;;;;;5089063;28;20554;-67
2022/08/14 13:11:34;;;;;;;3.70;1.73;;;29.70;1.00;;;;;;5082694;28;20928;-67
2022/08/14 13:14:03;;;;;;;4.93;2.07;;;29.70;1.00;;;;;;5083750;28;20481;-67
2022/08/14 13:16:30;;;;;;;4.10;2.03;;;29.70;1.00;;;;;;5091479;28;20979;-67
2022/08/14 13:19:00;;;;;;;4.43;2.20;;;29.70;1.00;;;;;;5088472;28;20448;-67